sensor_id;sensor_type;location;lat;lon;timestamp;P1;durP1;ratioP1;P2;durP2;ratioP2
23498;SDS011;11926;48.120;11.562;2023-03-01T00:01:07;26.00;;;13.43;;
23498;SDS011;11926;48.120;11.562;2023-03-01T00:03:57;26.63;;;14.60;;
23498;SDS011;11926;48.120;11.562;2023-03-01T00:06:45;27.75;;;14.80;;
23498;SDS011;11926;48.120;11.562;2023-03-01T00:09:33;26.67;;;14.40;;
23498;SDS011;11926;48.120;11.562;2023-03-01T00:12:20;27.67;;;14.98;;
23498;SDS011;11926;48.120;11.562;2023-03-01T00:15:07;33.08;;;15.80;;
23498;SDS011;11926;48.120;11.562;2023-03-01T00:17:55;30.17;;;16.85;;
23498;SDS011;11926;48.120;11.562;2023-03-01T00:20:47;24.38;;;15.15;;
23498;SDS011;11926;48.120;11.562;2023-03-01T00:23:36;26.85;;;14.75;;
23498;SDS011;11926;48.120;11.562;2023-03-01T00:26:24;29.23;;;15.40;;
23498;SDS011;11926;48.120;11.562;2023-03-01T00:29:13;27.65;;;15.70;;
23498;SDS011;11926;48.120;11.562;2023-03-01T00:32:00;26.73;;;16.02;;
23498;SDS011;11926;48.120;11.562;2023-03-01T00:34:48;27.20;;;15.63;;
23498;SDS011;11926;48.120;11.562;2023-03-01T00:37:42;27.30;;;15.23;;
23498;SDS011;11926;48.120;11.562;2023-03-01T00:40:30;29.35;;;15.30;;
23498;SDS011;11926;48.120;11.562;2023-03-01T00:43:19;30.70;;;15.75;;
23498;SDS011;11926;48.120;11.562;2023-03-01T00:46:07;30.42;;;16.65;;
23498;SDS011;11926;48.120;11.562;2023-03-01T00:48:56;27.58;;;16.30;;
23498;SDS011;11926;48.120;11.562;2023-03-01T00:51:43;26.60;;;15.25;;
23498;SDS011;11926;48.120;11.562;2023-03-01T00:54:32;27.00;;;15.52;;
23498;SDS011;11926;48.120;11.562;2023-03-01T00:57:19;27.55;;;15.10;;
23498;SDS011;11926;48.120;11.562;2023-03-01T01:00:07;26.20;;;15.30;;
23498;SDS011;11926;48.120;11.562;2023-03-01T01:02:57;32.47;;;16.45;;
23498;SDS011;11926;48.120;11.562;2023-03-01T01:05:44;29.98;;;16.67;;
23498;SDS011;11926;48.120;11.562;2023-03-01T01:08:31;28.35;;;15.52;;
23498;SDS011;11926;48.120;11.562;2023-03-01T01:11:20;30.20;;;16.20;;
23498;SDS011;11926;48.120;11.562;2023-03-01T01:14:08;26.33;;;14.27;;
23498;SDS011;11926;48.120;11.562;2023-03-01T01:16:55;26.58;;;15.15;;
23498;SDS011;11926;48.120;11.562;2023-03-01T01:19:42;27.85;;;15.75;;
23498;SDS011;11926;48.120;11.562;2023-03-01T01:22:30;30.38;;;16.00;;
23498;SDS011;11926;48.120;11.562;2023-03-01T01:25:17;28.63;;;15.45;;
23498;SDS011;11926;48.120;11.562;2023-03-01T01:28:05;32.60;;;16.77;;
23498;SDS011;11926;48.120;11.562;2023-03-01T01:30:53;31.67;;;16.83;;
23498;SDS011;11926;48.120;11.562;2023-03-01T01:33:40;30.40;;;15.70;;
23498;SDS011;11926;48.120;11.562;2023-03-01T01:36:28;28.38;;;14.68;;
23498;SDS011;11926;48.120;11.562;2023-03-01T01:39:16;27.92;;;15.68;;
23498;SDS011;11926;48.120;11.562;2023-03-01T01:42:03;31.48;;;16.60;;
23498;SDS011;11926;48.120;11.562;2023-03-01T01:50:57;29.08;;;16.50;;
23498;SDS011;11926;48.120;11.562;2023-03-01T01:53:47;32.45;;;14.38;;
23498;SDS011;11926;48.120;11.562;2023-03-01T01:56:39;30.85;;;16.05;;
23498;SDS011;11926;48.120;11.562;2023-03-01T01:59:31;31.30;;;15.93;;
23498;SDS011;11926;48.120;11.562;2023-03-01T02:02:20;29.92;;;15.48;;
23498;SDS011;11926;48.120;11.562;2023-03-01T02:05:09;30.30;;;15.93;;
23498;SDS011;11926;48.120;11.562;2023-03-01T02:08:02;28.85;;;16.08;;
23498;SDS011;11926;48.120;11.562;2023-03-01T02:10:50;29.42;;;14.73;;
23498;SDS011;11926;48.120;11.562;2023-03-01T02:13:39;35.10;;;16.10;;
23498;SDS011;11926;48.120;11.562;2023-03-01T02:16:27;30.70;;;16.60;;
23498;SDS011;11926;48.120;11.562;2023-03-01T02:19:19;33.13;;;17.52;;
23498;SDS011;11926;48.120;11.562;2023-03-01T02:22:20;29.15;;;15.02;;
23498;SDS011;11926;48.120;11.562;2023-03-01T02:31:07;26.13;;;15.35;;
23498;SDS011;11926;48.120;11.562;2023-03-01T02:34:12;27.17;;;15.68;;
23498;SDS011;11926;48.120;11.562;2023-03-01T02:37:00;27.25;;;15.75;;
23498;SDS011;11926;48.120;11.562;2023-03-01T02:39:48;34.70;;;16.85;;
23498;SDS011;11926;48.120;11.562;2023-03-01T02:42:40;30.33;;;15.77;;
23498;SDS011;11926;48.120;11.562;2023-03-01T02:45:35;26.38;;;14.57;;
23498;SDS011;11926;48.120;11.562;2023-03-01T02:48:22;27.13;;;15.85;;
23498;SDS011;11926;48.120;11.562;2023-03-01T02:51:10;24.20;;;11.48;;
23498;SDS011;11926;48.120;11.562;2023-03-01T02:54:17;30.27;;;15.27;;
23498;SDS011;11926;48.120;11.562;2023-03-01T02:57:11;30.73;;;16.15;;
23498;SDS011;11926;48.120;11.562;2023-03-01T02:59:59;26.45;;;15.63;;
23498;SDS011;11926;48.120;11.562;2023-03-01T03:02:55;28.50;;;15.15;;
23498;SDS011;11926;48.120;11.562;2023-03-01T03:05:43;25.83;;;12.98;;
23498;SDS011;11926;48.120;11.562;2023-03-01T03:08:31;30.88;;;16.08;;
23498;SDS011;11926;48.120;11.562;2023-03-01T03:11:18;23.95;;;14.38;;
23498;SDS011;11926;48.120;11.562;2023-03-01T03:14:06;29.40;;;15.80;;
23498;SDS011;11926;48.120;11.562;2023-03-01T03:17:00;27.95;;;16.10;;
23498;SDS011;11926;48.120;11.562;2023-03-01T03:19:53;29.05;;;16.83;;
23498;SDS011;11926;48.120;11.562;2023-03-01T03:22:40;30.30;;;15.45;;
23498;SDS011;11926;48.120;11.562;2023-03-01T03:25:28;28.70;;;15.80;;
23498;SDS011;11926;48.120;11.562;2023-03-01T03:28:16;28.73;;;15.55;;
23498;SDS011;11926;48.120;11.562;2023-03-01T03:31:05;29.42;;;15.52;;
23498;SDS011;11926;48.120;11.562;2023-03-01T03:33:52;25.42;;;13.88;;
23498;SDS011;11926;48.120;11.562;2023-03-01T03:36:41;30.65;;;16.23;;
23498;SDS011;11926;48.120;11.562;2023-03-01T03:39:29;28.95;;;16.52;;
23498;SDS011;11926;48.120;11.562;2023-03-01T03:42:20;30.63;;;16.20;;
23498;SDS011;11926;48.120;11.562;2023-03-01T03:45:08;26.92;;;15.35;;
23498;SDS011;11926;48.120;11.562;2023-03-01T03:47:55;32.33;;;16.50;;
23498;SDS011;11926;48.120;11.562;2023-03-01T03:50:46;30.52;;;15.85;;
23498;SDS011;11926;48.120;11.562;2023-03-01T03:53:36;27.47;;;14.53;;
23498;SDS011;11926;48.120;11.562;2023-03-01T03:56:24;30.52;;;15.57;;
23498;SDS011;11926;48.120;11.562;2023-03-01T03:59:13;29.20;;;16.38;;
23498;SDS011;11926;48.120;11.562;2023-03-01T04:02:00;27.83;;;15.25;;
23498;SDS011;11926;48.120;11.562;2023-03-01T04:04:47;29.33;;;15.98;;
23498;SDS011;11926;48.120;11.562;2023-03-01T04:07:34;24.88;;;15.13;;
23498;SDS011;11926;48.120;11.562;2023-03-01T04:10:23;28.40;;;15.90;;
23498;SDS011;11926;48.120;11.562;2023-03-01T04:13:11;26.85;;;14.45;;
23498;SDS011;11926;48.120;11.562;2023-03-01T04:15:59;32.42;;;17.90;;
23498;SDS011;11926;48.120;11.562;2023-03-01T04:18:46;34.22;;;16.60;;
23498;SDS011;11926;48.120;11.562;2023-03-01T04:21:34;29.48;;;16.70;;
23498;SDS011;11926;48.120;11.562;2023-03-01T04:24:21;31.92;;;16.63;;
23498;SDS011;11926;48.120;11.562;2023-03-01T04:27:09;30.13;;;17.58;;
23498;SDS011;11926;48.120;11.562;2023-03-01T04:29:56;33.40;;;16.65;;
23498;SDS011;11926;48.120;11.562;2023-03-01T04:32:43;30.98;;;16.20;;
23498;SDS011;11926;48.120;11.562;2023-03-01T04:35:31;33.17;;;16.80;;
23498;SDS011;11926;48.120;11.562;2023-03-01T04:38:20;29.85;;;16.38;;
23498;SDS011;11926;48.120;11.562;2023-03-01T04:41:08;29.08;;;15.82;;
23498;SDS011;11926;48.120;11.562;2023-03-01T04:43:57;26.48;;;14.75;;
23498;SDS011;11926;48.120;11.562;2023-03-01T04:46:45;34.30;;;17.50;;
23498;SDS011;11926;48.120;11.562;2023-03-01T04:49:34;30.08;;;17.27;;
23498;SDS011;11926;48.120;11.562;2023-03-01T04:52:22;30.48;;;16.92;;
23498;SDS011;11926;48.120;11.562;2023-03-01T04:55:09;28.13;;;15.40;;
23498;SDS011;11926;48.120;11.562;2023-03-01T04:57:57;29.35;;;16.23;;
23498;SDS011;11926;48.120;11.562;2023-03-01T05:00:46;28.30;;;16.10;;
23498;SDS011;11926;48.120;11.562;2023-03-01T05:03:33;35.80;;;17.50;;
23498;SDS011;11926;48.120;11.562;2023-03-01T05:06:20;29.23;;;16.42;;
23498;SDS011;11926;48.120;11.562;2023-03-01T05:09:07;29.63;;;16.20;;
23498;SDS011;11926;48.120;11.562;2023-03-01T05:11:56;33.95;;;17.00;;
23498;SDS011;11926;48.120;11.562;2023-03-01T05:14:44;30.70;;;16.25;;
23498;SDS011;11926;48.120;11.562;2023-03-01T05:17:32;27.33;;;15.77;;
23498;SDS011;11926;48.120;11.562;2023-03-01T05:20:19;28.00;;;15.13;;
23498;SDS011;11926;48.120;11.562;2023-03-01T05:23:09;29.92;;;16.98;;
23498;SDS011;11926;48.120;11.562;2023-03-01T05:25:57;26.90;;;13.85;;
23498;SDS011;11926;48.120;11.562;2023-03-01T05:28:44;32.03;;;17.75;;
23498;SDS011;11926;48.120;11.562;2023-03-01T05:31:32;28.73;;;16.60;;
23498;SDS011;11926;48.120;11.562;2023-03-01T05:34:24;28.25;;;16.13;;
23498;SDS011;11926;48.120;11.562;2023-03-01T05:37:11;30.98;;;17.15;;
23498;SDS011;11926;48.120;11.562;2023-03-01T05:39:59;33.65;;;17.85;;
23498;SDS011;11926;48.120;11.562;2023-03-01T05:42:47;38.00;;;17.30;;
23498;SDS011;11926;48.120;11.562;2023-03-01T05:45:36;32.42;;;16.50;;
23498;SDS011;11926;48.120;11.562;2023-03-01T05:48:24;30.05;;;16.40;;
23498;SDS011;11926;48.120;11.562;2023-03-01T05:51:13;34.28;;;17.40;;
23498;SDS011;11926;48.120;11.562;2023-03-01T05:54:00;32.22;;;15.60;;
23498;SDS011;11926;48.120;11.562;2023-03-01T05:56:47;34.78;;;17.92;;
23498;SDS011;11926;48.120;11.562;2023-03-01T05:59:34;35.03;;;17.13;;
23498;SDS011;11926;48.120;11.562;2023-03-01T06:02:21;33.75;;;18.13;;
23498;SDS011;11926;48.120;11.562;2023-03-01T06:05:10;31.50;;;16.83;;
23498;SDS011;11926;48.120;11.562;2023-03-01T06:08:00;29.52;;;16.17;;
23498;SDS011;11926;48.120;11.562;2023-03-01T06:10:48;31.63;;;16.92;;
23498;SDS011;11926;48.120;11.562;2023-03-01T06:13:35;34.47;;;18.75;;
23498;SDS011;11926;48.120;11.562;2023-03-01T06:16:22;31.67;;;16.90;;
23498;SDS011;11926;48.120;11.562;2023-03-01T06:19:09;31.13;;;17.00;;
23498;SDS011;11926;48.120;11.562;2023-03-01T06:21:56;32.97;;;18.17;;
23498;SDS011;11926;48.120;11.562;2023-03-01T06:24:45;31.80;;;17.85;;
23498;SDS011;11926;48.120;11.562;2023-03-01T06:27:32;32.95;;;16.88;;
23498;SDS011;11926;48.120;11.562;2023-03-01T06:30:20;34.45;;;16.83;;
23498;SDS011;11926;48.120;11.562;2023-03-01T06:33:08;33.22;;;18.23;;
23498;SDS011;11926;48.120;11.562;2023-03-01T06:35:55;30.65;;;16.92;;
23498;SDS011;11926;48.120;11.562;2023-03-01T06:38:42;27.15;;;12.02;;
23498;SDS011;11926;48.120;11.562;2023-03-01T06:41:31;33.00;;;17.10;;
23498;SDS011;11926;48.120;11.562;2023-03-01T06:44:19;39.85;;;17.25;;
23498;SDS011;11926;48.120;11.562;2023-03-01T06:47:06;30.90;;;15.65;;
23498;SDS011;11926;48.120;11.562;2023-03-01T06:49:53;31.92;;;17.58;;
23498;SDS011;11926;48.120;11.562;2023-03-01T06:52:41;28.55;;;16.50;;
23498;SDS011;11926;48.120;11.562;2023-03-01T06:55:29;30.60;;;15.90;;
23498;SDS011;11926;48.120;11.562;2023-03-01T06:58:18;30.58;;;16.80;;
23498;SDS011;11926;48.120;11.562;2023-03-01T07:01:05;32.65;;;17.17;;
23498;SDS011;11926;48.120;11.562;2023-03-01T07:03:53;36.17;;;16.80;;
23498;SDS011;11926;48.120;11.562;2023-03-01T07:06:40;36.65;;;16.13;;
23498;SDS011;11926;48.120;11.562;2023-03-01T07:09:27;34.55;;;16.95;;
23498;SDS011;11926;48.120;11.562;2023-03-01T07:12:15;34.47;;;18.10;;
23498;SDS011;11926;48.120;11.562;2023-03-01T07:15:05;33.22;;;17.92;;
23498;SDS011;11926;48.120;11.562;2023-03-01T07:17:55;39.33;;;18.10;;
23498;SDS011;11926;48.120;11.562;2023-03-01T07:20:43;33.90;;;17.35;;
23498;SDS011;11926;48.120;11.562;2023-03-01T07:23:30;37.15;;;17.83;;
23498;SDS011;11926;48.120;11.562;2023-03-01T07:26:17;33.67;;;17.23;;
23498;SDS011;11926;48.120;11.562;2023-03-01T07:29:06;31.92;;;17.85;;
23498;SDS011;11926;48.120;11.562;2023-03-01T07:31:55;33.45;;;16.52;;
23498;SDS011;11926;48.120;11.562;2023-03-01T07:34:43;31.52;;;17.58;;
23498;SDS011;11926;48.120;11.562;2023-03-01T07:37:30;31.42;;;15.82;;
23498;SDS011;11926;48.120;11.562;2023-03-01T07:40:18;36.95;;;17.40;;
23498;SDS011;11926;48.120;11.562;2023-03-01T07:43:05;36.30;;;16.45;;
23498;SDS011;11926;48.120;11.562;2023-03-01T07:45:52;34.33;;;17.27;;
23498;SDS011;11926;48.120;11.562;2023-03-01T07:48:41;31.83;;;17.67;;
23498;SDS011;11926;48.120;11.562;2023-03-01T07:51:28;33.92;;;16.63;;
23498;SDS011;11926;48.120;11.562;2023-03-01T07:54:15;32.88;;;16.50;;
23498;SDS011;11926;48.120;11.562;2023-03-01T07:57:03;35.75;;;17.83;;
23498;SDS011;11926;48.120;11.562;2023-03-01T07:59:50;30.85;;;15.57;;
23498;SDS011;11926;48.120;11.562;2023-03-01T08:02:38;29.40;;;16.42;;
23498;SDS011;11926;48.120;11.562;2023-03-01T08:05:28;34.25;;;17.67;;
23498;SDS011;11926;48.120;11.562;2023-03-01T08:08:15;33.53;;;14.45;;
23498;SDS011;11926;48.120;11.562;2023-03-01T08:11:04;31.55;;;16.15;;
23498;SDS011;11926;48.120;11.562;2023-03-01T08:13:53;33.30;;;19.10;;
23498;SDS011;11926;48.120;11.562;2023-03-01T08:16:54;35.30;;;16.63;;
23498;SDS011;11926;48.120;11.562;2023-03-01T08:19:42;35.72;;;17.30;;
23498;SDS011;11926;48.120;11.562;2023-03-01T08:22:31;33.17;;;16.58;;
23498;SDS011;11926;48.120;11.562;2023-03-01T08:25:18;39.80;;;18.65;;
23498;SDS011;11926;48.120;11.562;2023-03-01T08:28:05;35.22;;;18.20;;
23498;SDS011;11926;48.120;11.562;2023-03-01T08:30:52;35.30;;;18.55;;
23498;SDS011;11926;48.120;11.562;2023-03-01T08:33:39;35.95;;;18.23;;
23498;SDS011;11926;48.120;11.562;2023-03-01T08:36:28;33.70;;;18.38;;
23498;SDS011;11926;48.120;11.562;2023-03-01T08:39:19;33.80;;;17.38;;
23498;SDS011;11926;48.120;11.562;2023-03-01T08:42:07;31.58;;;15.93;;
23498;SDS011;11926;48.120;11.562;2023-03-01T08:44:54;31.60;;;17.58;;
23498;SDS011;11926;48.120;11.562;2023-03-01T08:47:42;32.55;;;17.70;;
23498;SDS011;11926;48.120;11.562;2023-03-01T08:50:30;35.30;;;18.52;;
23498;SDS011;11926;48.120;11.562;2023-03-01T08:53:17;34.53;;;17.75;;
23498;SDS011;11926;48.120;11.562;2023-03-01T08:56:06;36.90;;;18.55;;
23498;SDS011;11926;48.120;11.562;2023-03-01T08:58:53;34.10;;;18.35;;
23498;SDS011;11926;48.120;11.562;2023-03-01T09:01:40;37.75;;;16.73;;
23498;SDS011;11926;48.120;11.562;2023-03-01T09:04:29;35.08;;;18.15;;
23498;SDS011;11926;48.120;11.562;2023-03-01T09:07:16;32.42;;;17.85;;
23498;SDS011;11926;48.120;11.562;2023-03-01T09:10:04;32.50;;;17.02;;
23498;SDS011;11926;48.120;11.562;2023-03-01T09:12:53;31.17;;;18.23;;
23498;SDS011;11926;48.120;11.562;2023-03-01T09:15:40;32.92;;;17.70;;
23498;SDS011;11926;48.120;11.562;2023-03-01T09:18:27;31.73;;;17.55;;
23498;SDS011;11926;48.120;11.562;2023-03-01T09:21:15;33.28;;;18.60;;
23498;SDS011;11926;48.120;11.562;2023-03-01T09:24:22;33.13;;;17.65;;
23498;SDS011;11926;48.120;11.562;2023-03-01T09:27:10;34.10;;;17.40;;
23498;SDS011;11926;48.120;11.562;2023-03-01T09:30:00;32.67;;;17.25;;
23498;SDS011;11926;48.120;11.562;2023-03-01T09:32:48;34.30;;;17.70;;
23498;SDS011;11926;48.120;11.562;2023-03-01T09:35:35;35.60;;;18.75;;
23498;SDS011;11926;48.120;11.562;2023-03-01T09:38:22;31.98;;;17.02;;
23498;SDS011;11926;48.120;11.562;2023-03-01T09:41:15;30.48;;;16.90;;
23498;SDS011;11926;48.120;11.562;2023-03-01T09:44:15;36.17;;;18.40;;
23498;SDS011;11926;48.120;11.562;2023-03-01T09:47:15;33.50;;;17.48;;
23498;SDS011;11926;48.120;11.562;2023-03-01T09:50:05;36.03;;;17.75;;
23498;SDS011;11926;48.120;11.562;2023-03-01T09:53:00;32.90;;;17.80;;
23498;SDS011;11926;48.120;11.562;2023-03-01T09:55:50;33.50;;;17.50;;
23498;SDS011;11926;48.120;11.562;2023-03-01T09:58:43;32.88;;;17.92;;
23498;SDS011;11926;48.120;11.562;2023-03-01T10:01:38;32.50;;;17.30;;
23498;SDS011;11926;48.120;11.562;2023-03-01T10:04:38;33.42;;;17.48;;
23498;SDS011;11926;48.120;11.562;2023-03-01T10:07:32;35.17;;;17.65;;
23498;SDS011;11926;48.120;11.562;2023-03-01T10:13:19;36.13;;;18.60;;
23498;SDS011;11926;48.120;11.562;2023-03-01T10:16:12;37.28;;;18.08;;
23498;SDS011;11926;48.120;11.562;2023-03-01T10:19:02;32.70;;;16.15;;
23498;SDS011;11926;48.120;11.562;2023-03-01T10:21:53;35.20;;;16.30;;
23498;SDS011;11926;48.120;11.562;2023-03-01T10:24:40;33.97;;;17.60;;
23498;SDS011;11926;48.120;11.562;2023-03-01T10:27:29;30.88;;;16.58;;
23498;SDS011;11926;48.120;11.562;2023-03-01T10:30:29;32.15;;;16.10;;
23498;SDS011;11926;48.120;11.562;2023-03-01T10:33:27;33.17;;;18.70;;
23498;SDS011;11926;48.120;11.562;2023-03-01T10:36:17;34.10;;;18.15;;
23498;SDS011;11926;48.120;11.562;2023-03-01T10:39:12;32.22;;;15.52;;
23498;SDS011;11926;48.120;11.562;2023-03-01T10:42:04;34.97;;;19.38;;
23498;SDS011;11926;48.120;11.562;2023-03-01T10:51:04;34.05;;;17.63;;
23498;SDS011;11926;48.120;11.562;2023-03-01T10:53:53;36.58;;;19.85;;
23498;SDS011;11926;48.120;11.562;2023-03-01T10:56:50;34.33;;;20.40;;
23498;SDS011;11926;48.120;11.562;2023-03-01T10:59:41;31.30;;;17.90;;
23498;SDS011;11926;48.120;11.562;2023-03-01T11:02:28;32.97;;;18.27;;
23498;SDS011;11926;48.120;11.562;2023-03-01T11:05:19;30.92;;;16.75;;
23498;SDS011;11926;48.120;11.562;2023-03-01T11:08:09;34.55;;;18.02;;
23498;SDS011;11926;48.120;11.562;2023-03-01T11:11:06;30.02;;;17.00;;
23498;SDS011;11926;48.120;11.562;2023-03-01T11:14:03;32.53;;;18.92;;
23498;SDS011;11926;48.120;11.562;2023-03-01T11:17:12;36.30;;;19.48;;
23498;SDS011;11926;48.120;11.562;2023-03-01T11:20:04;30.58;;;17.30;;
23498;SDS011;11926;48.120;11.562;2023-03-01T11:23:04;25.63;;;16.08;;
23498;SDS011;11926;48.120;11.562;2023-03-01T11:25:56;30.63;;;17.98;;
23498;SDS011;11926;48.120;11.562;2023-03-01T11:28:48;29.58;;;18.17;;
23498;SDS011;11926;48.120;11.562;2023-03-01T11:31:40;28.75;;;18.42;;
23498;SDS011;11926;48.120;11.562;2023-03-01T11:37:34;32.88;;;18.98;;
23498;SDS011;11926;48.120;11.562;2023-03-01T11:40:27;30.85;;;18.02;;
23498;SDS011;11926;48.120;11.562;2023-03-01T11:43:21;29.05;;;15.45;;
23498;SDS011;11926;48.120;11.562;2023-03-01T11:46:27;31.58;;;18.42;;
23498;SDS011;11926;48.120;11.562;2023-03-01T11:49:32;29.77;;;19.58;;
23498;SDS011;11926;48.120;11.562;2023-03-01T11:52:32;31.33;;;18.33;;
23498;SDS011;11926;48.120;11.562;2023-03-01T11:55:31;32.50;;;18.45;;
23498;SDS011;11926;48.120;11.562;2023-03-01T11:58:39;31.45;;;18.77;;
23498;SDS011;11926;48.120;11.562;2023-03-01T12:01:48;32.42;;;19.38;;
23498;SDS011;11926;48.120;11.562;2023-03-01T12:04:51;30.40;;;17.08;;
23498;SDS011;11926;48.120;11.562;2023-03-01T12:08:02;30.45;;;18.52;;
23498;SDS011;11926;48.120;11.562;2023-03-01T12:10:57;29.73;;;18.55;;
23498;SDS011;11926;48.120;11.562;2023-03-01T12:14:00;33.90;;;19.88;;
23498;SDS011;11926;48.120;11.562;2023-03-01T12:17:04;30.58;;;18.77;;
23498;SDS011;11926;48.120;11.562;2023-03-01T12:20:08;30.90;;;18.33;;
23498;SDS011;11926;48.120;11.562;2023-03-01T12:29:17;27.50;;;16.67;;
23498;SDS011;11926;48.120;11.562;2023-03-01T12:32:19;31.73;;;18.83;;
23498;SDS011;11926;48.120;11.562;2023-03-01T12:35:37;31.27;;;18.05;;
23498;SDS011;11926;48.120;11.562;2023-03-01T12:38:41;29.55;;;18.25;;
23498;SDS011;11926;48.120;11.562;2023-03-01T12:41:35;29.20;;;17.73;;
23498;SDS011;11926;48.120;11.562;2023-03-01T12:44:35;30.83;;;18.48;;
23498;SDS011;11926;48.120;11.562;2023-03-01T12:47:39;30.33;;;17.42;;
23498;SDS011;11926;48.120;11.562;2023-03-01T12:50:41;30.85;;;18.50;;
23498;SDS011;11926;48.120;11.562;2023-03-01T12:53:34;31.33;;;19.70;;
23498;SDS011;11926;48.120;11.562;2023-03-01T12:56:26;30.83;;;19.35;;
23498;SDS011;11926;48.120;11.562;2023-03-01T12:59:18;32.60;;;18.35;;
23498;SDS011;11926;48.120;11.562;2023-03-01T13:02:13;30.92;;;18.42;;
23498;SDS011;11926;48.120;11.562;2023-03-01T13:05:19;35.15;;;19.35;;
23498;SDS011;11926;48.120;11.562;2023-03-01T13:08:20;28.48;;;17.98;;
23498;SDS011;11926;48.120;11.562;2023-03-01T13:11:16;28.50;;;18.10;;
23498;SDS011;11926;48.120;11.562;2023-03-01T13:20:18;32.97;;;17.70;;
23498;SDS011;11926;48.120;11.562;2023-03-01T13:23:07;31.83;;;16.88;;
23498;SDS011;11926;48.120;11.562;2023-03-01T13:26:04;30.35;;;18.70;;
23498;SDS011;11926;48.120;11.562;2023-03-01T13:28:56;30.75;;;18.48;;
23498;SDS011;11926;48.120;11.562;2023-03-01T13:34:51;28.52;;;16.95;;
23498;SDS011;11926;48.120;11.562;2023-03-01T13:37:41;31.17;;;17.88;;
23498;SDS011;11926;48.120;11.562;2023-03-01T13:46:35;31.00;;;18.42;;
23498;SDS011;11926;48.120;11.562;2023-03-01T13:49:23;34.03;;;19.30;;
23498;SDS011;11926;48.120;11.562;2023-03-01T13:52:32;30.83;;;17.70;;
23498;SDS011;11926;48.120;11.562;2023-03-01T13:55:27;30.83;;;19.45;;
23498;SDS011;11926;48.120;11.562;2023-03-01T13:58:23;30.27;;;18.05;;
23498;SDS011;11926;48.120;11.562;2023-03-01T14:01:20;31.80;;;17.83;;
23498;SDS011;11926;48.120;11.562;2023-03-01T14:07:16;31.45;;;19.15;;
23498;SDS011;11926;48.120;11.562;2023-03-01T14:10:05;29.27;;;18.67;;
23498;SDS011;11926;48.120;11.562;2023-03-01T14:12:55;29.77;;;18.60;;
23498;SDS011;11926;48.120;11.562;2023-03-01T14:16:06;29.38;;;18.40;;
23498;SDS011;11926;48.120;11.562;2023-03-01T14:19:08;30.23;;;17.55;;
23498;SDS011;11926;48.120;11.562;2023-03-01T14:22:18;31.90;;;19.45;;
23498;SDS011;11926;48.120;11.562;2023-03-01T14:25:17;28.02;;;18.48;;
23498;SDS011;11926;48.120;11.562;2023-03-01T14:28:13;28.95;;;17.90;;
23498;SDS011;11926;48.120;11.562;2023-03-01T14:31:03;28.95;;;17.95;;
23498;SDS011;11926;48.120;11.562;2023-03-01T14:34:16;31.65;;;18.00;;
23498;SDS011;11926;48.120;11.562;2023-03-01T14:37:10;34.85;;;18.15;;
23498;SDS011;11926;48.120;11.562;2023-03-01T14:40:05;33.65;;;18.80;;
23498;SDS011;11926;48.120;11.562;2023-03-01T14:43:09;28.27;;;16.95;;
23498;SDS011;11926;48.120;11.562;2023-03-01T14:45:58;30.27;;;17.85;;
23498;SDS011;11926;48.120;11.562;2023-03-01T14:48:48;28.00;;;17.33;;
23498;SDS011;11926;48.120;11.562;2023-03-01T14:51:39;26.73;;;16.42;;
23498;SDS011;11926;48.120;11.562;2023-03-01T14:54:31;29.75;;;17.83;;
23498;SDS011;11926;48.120;11.562;2023-03-01T14:57:26;35.50;;;18.20;;
23498;SDS011;11926;48.120;11.562;2023-03-01T15:00:15;29.85;;;17.00;;
23498;SDS011;11926;48.120;11.562;2023-03-01T15:03:07;29.63;;;16.92;;
23498;SDS011;11926;48.120;11.562;2023-03-01T15:05:59;27.65;;;17.52;;
23498;SDS011;11926;48.120;11.562;2023-03-01T15:08:50;26.40;;;16.63;;
23498;SDS011;11926;48.120;11.562;2023-03-01T15:11:42;28.35;;;15.43;;
23498;SDS011;11926;48.120;11.562;2023-03-01T15:17:51;26.25;;;15.35;;
23498;SDS011;11926;48.120;11.562;2023-03-01T15:20:41;26.23;;;16.38;;
23498;SDS011;11926;48.120;11.562;2023-03-01T15:23:29;29.30;;;16.80;;
23498;SDS011;11926;48.120;11.562;2023-03-01T15:26:22;26.83;;;15.70;;
23498;SDS011;11926;48.120;11.562;2023-03-01T15:29:15;27.45;;;15.52;;
23498;SDS011;11926;48.120;11.562;2023-03-01T15:32:06;28.03;;;16.73;;
23498;SDS011;11926;48.120;11.562;2023-03-01T15:41:25;25.00;;;16.10;;
23498;SDS011;11926;48.120;11.562;2023-03-01T15:44:16;34.15;;;16.60;;
23498;SDS011;11926;48.120;11.562;2023-03-01T15:47:06;32.90;;;17.30;;
23498;SDS011;11926;48.120;11.562;2023-03-01T15:50:15;29.10;;;15.45;;
23498;SDS011;11926;48.120;11.562;2023-03-01T15:53:06;29.42;;;15.70;;
23498;SDS011;11926;48.120;11.562;2023-03-01T15:55:57;26.95;;;16.42;;
23498;SDS011;11926;48.120;11.562;2023-03-01T15:58:45;22.95;;;14.40;;
23498;SDS011;11926;48.120;11.562;2023-03-01T16:01:32;26.70;;;15.55;;
23498;SDS011;11926;48.120;11.562;2023-03-01T16:04:20;27.75;;;15.20;;
23498;SDS011;11926;48.120;11.562;2023-03-01T16:07:08;25.25;;;14.48;;
23498;SDS011;11926;48.120;11.562;2023-03-01T16:09:56;27.67;;;14.77;;
23498;SDS011;11926;48.120;11.562;2023-03-01T16:12:43;32.85;;;16.52;;
23498;SDS011;11926;48.120;11.562;2023-03-01T16:15:34;25.98;;;14.65;;
23498;SDS011;11926;48.120;11.562;2023-03-01T16:18:21;30.95;;;16.40;;
23498;SDS011;11926;48.120;11.562;2023-03-01T16:21:10;26.15;;;15.40;;
23498;SDS011;11926;48.120;11.562;2023-03-01T16:24:01;25.25;;;14.35;;
23498;SDS011;11926;48.120;11.562;2023-03-01T16:26:48;26.45;;;14.98;;
23498;SDS011;11926;48.120;11.562;2023-03-01T16:29:35;31.98;;;15.45;;
23498;SDS011;11926;48.120;11.562;2023-03-01T16:32:24;25.00;;;14.50;;
23498;SDS011;11926;48.120;11.562;2023-03-01T16:35:13;27.08;;;14.35;;
23498;SDS011;11926;48.120;11.562;2023-03-01T16:38:02;25.80;;;14.38;;
23498;SDS011;11926;48.120;11.562;2023-03-01T16:40:50;25.48;;;14.48;;
23498;SDS011;11926;48.120;11.562;2023-03-01T16:43:38;25.25;;;14.30;;
23498;SDS011;11926;48.120;11.562;2023-03-01T16:46:27;26.35;;;14.63;;
23498;SDS011;11926;48.120;11.562;2023-03-01T16:49:16;26.00;;;14.23;;
23498;SDS011;11926;48.120;11.562;2023-03-01T16:52:03;27.48;;;14.50;;
23498;SDS011;11926;48.120;11.562;2023-03-01T16:54:51;27.38;;;13.95;;
23498;SDS011;11926;48.120;11.562;2023-03-01T16:57:38;22.65;;;13.52;;
23498;SDS011;11926;48.120;11.562;2023-03-01T17:00:26;31.73;;;14.80;;
23498;SDS011;11926;48.120;11.562;2023-03-01T17:03:13;25.25;;;14.52;;
23498;SDS011;11926;48.120;11.562;2023-03-01T17:06:04;30.05;;;14.80;;
23498;SDS011;11926;48.120;11.562;2023-03-01T17:08:53;29.02;;;14.90;;
23498;SDS011;11926;48.120;11.562;2023-03-01T17:11:41;26.02;;;14.32;;
23498;SDS011;11926;48.120;11.562;2023-03-01T17:14:28;27.70;;;13.95;;
23498;SDS011;11926;48.120;11.562;2023-03-01T17:17:15;26.17;;;15.07;;
23498;SDS011;11926;48.120;11.562;2023-03-01T17:20:03;29.42;;;14.45;;
23498;SDS011;11926;48.120;11.562;2023-03-01T17:22:52;33.38;;;17.38;;